sensor_id;sensor_type;location;lat;lon;timestamp;temperature;humidity
4556;DHT22;2290;48.674;9.018;2023-05-10T00:02:10;14.30;99.90
4556;DHT22;2290;48.674;9.018;2023-05-10T00:04:36;14.20;99.90
4556;DHT22;2290;48.674;9.018;2023-05-10T00:07:01;14.20;99.90
4556;DHT22;2290;48.674;9.018;2023-05-10T00:09:27;14.10;99.90
4556;DHT22;2290;48.674;9.018;2023-05-10T00:11:53;14.10;99.90
4556;DHT22;2290;48.674;9.018;2023-05-10T00:14:20;14.10;99.90
4556;DHT22;2290;48.674;9.018;2023-05-10T00:16:46;14.10;99.90
4556;DHT22;2290;48.674;9.018;2023-05-10T00:19:12;14.10;99.90
4556;DHT22;2290;48.674;9.018;2023-05-10T00:21:38;14.10;99.90
4556;DHT22;2290;48.674;9.018;2023-05-10T00:24:05;14.00;99.90
4556;DHT22;2290;48.674;9.018;2023-05-10T00:26:31;14.00;99.90
4556;DHT22;2290;48.674;9.018;2023-05-10T00:28:56;14.10;99.90
4556;DHT22;2290;48.674;9.018;2023-05-10T00:31:23;14.00;99.90
4556;DHT22;2290;48.674;9.018;2023-05-10T00:33:49;13.90;99.90
4556;DHT22;2290;48.674;9.018;2023-05-10T00:36:14;14.00;99.90
4556;DHT22;2290;48.674;9.018;2023-05-10T00:38:40;14.00;99.90
4556;DHT22;2290;48.674;9.018;2023-05-10T00:41:06;14.00;99.90
4556;DHT22;2290;48.674;9.018;2023-05-10T00:43:32;14.00;99.90
4556;DHT22;2290;48.674;9.018;2023-05-10T00:45:57;14.00;99.90
4556;DHT22;2290;48.674;9.018;2023-05-10T00:48:23;13.90;99.90
4556;DHT22;2290;48.674;9.018;2023-05-10T00:50:49;13.80;99.90
4556;DHT22;2290;48.674;9.018;2023-05-10T00:53:16;14.00;99.90
4556;DHT22;2290;48.674;9.018;2023-05-10T00:55:42;13.80;99.90
4556;DHT22;2290;48.674;9.018;2023-05-10T00:58:07;13.80;99.90
4556;DHT22;2290;48.674;9.018;2023-05-10T01:00:33;13.70;99.90
4556;DHT22;2290;48.674;9.018;2023-05-10T01:03:00;13.70;99.90
4556;DHT22;2290;48.674;9.018;2023-05-10T01:05:28;13.50;99.90
4556;DHT22;2290;48.674;9.018;2023-05-10T01:07:53;13.60;99.90
4556;DHT22;2290;48.674;9.018;2023-05-10T01:10:19;13.70;99.90
4556;DHT22;2290;48.674;9.018;2023-05-10T01:12:46;13.80;99.90
4556;DHT22;2290;48.674;9.018;2023-05-10T01:15:14;13.80;99.90
4556;DHT22;2290;48.674;9.018;2023-05-10T01:17:42;14.00;99.90
4556;DHT22;2290;48.674;9.018;2023-05-10T01:20:10;13.90;99.90
4556;DHT22;2290;48.674;9.018;2023-05-10T01:34:08;13.50;99.90
4556;DHT22;2290;48.674;9.018;2023-05-10T01:36:55;13.40;99.90
4556;DHT22;2290;48.674;9.018;2023-05-10T01:39:24;13.50;99.90
4556;DHT22;2290;48.674;9.018;2023-05-10T01:41:52;13.50;99.90
4556;DHT22;2290;48.674;9.018;2023-05-10T01:44:42;13.40;99.90
4556;DHT22;2290;48.674;9.018;2023-05-10T01:47:15;13.40;99.90
4556;DHT22;2290;48.674;9.018;2023-05-10T01:49:54;13.50;99.90
4556;DHT22;2290;48.674;9.018;2023-05-10T01:52:25;13.50;99.90
4556;DHT22;2290;48.674;9.018;2023-05-10T01:55:19;13.60;99.90
4556;DHT22;2290;48.674;9.018;2023-05-10T01:57:48;13.50;99.90
4556;DHT22;2290;48.674;9.018;2023-05-10T02:00:16;13.50;99.90
4556;DHT22;2290;48.674;9.018;2023-05-10T02:02:48;13.40;99.90
4556;DHT22;2290;48.674;9.018;2023-05-10T02:05:16;13.50;99.90
4556;DHT22;2290;48.674;9.018;2023-05-10T02:07:43;13.50;99.90
4556;DHT22;2290;48.674;9.018;2023-05-10T02:10:10;13.60;99.90
4556;DHT22;2290;48.674;9.018;2023-05-10T02:12:39;13.50;99.90
4556;DHT22;2290;48.674;9.018;2023-05-10T02:15:07;13.50;99.90
4556;DHT22;2290;48.674;9.018;2023-05-10T02:17:37;13.50;99.90
4556;DHT22;2290;48.674;9.018;2023-05-10T02:20:06;13.50;99.90
4556;DHT22;2290;48.674;9.018;2023-05-10T02:22:32;13.40;99.90
4556;DHT22;2290;48.674;9.018;2023-05-10T02:24:59;13.30;99.90
4556;DHT22;2290;48.674;9.018;2023-05-10T02:27:27;13.50;99.90
4556;DHT22;2290;48.674;9.018;2023-05-10T02:29:54;13.40;99.90
4556;DHT22;2290;48.674;9.018;2023-05-10T02:32:21;13.30;99.90
4556;DHT22;2290;48.674;9.018;2023-05-10T02:34:49;13.40;99.90
4556;DHT22;2290;48.674;9.018;2023-05-10T02:37:19;13.30;99.90
4556;DHT22;2290;48.674;9.018;2023-05-10T02:39:47;13.30;99.90
4556;DHT22;2290;48.674;9.018;2023-05-10T02:42:17;13.30;99.90
4556;DHT22;2290;48.674;9.018;2023-05-10T02:44:46;13.30;99.90
4556;DHT22;2290;48.674;9.018;2023-05-10T02:47:13;13.30;99.90
4556;DHT22;2290;48.674;9.018;2023-05-10T02:49:38;13.50;99.90
4556;DHT22;2290;48.674;9.018;2023-05-10T02:52:07;13.50;99.90
4556;DHT22;2290;48.674;9.018;2023-05-10T02:54:41;13.50;99.90
4556;DHT22;2290;48.674;9.018;2023-05-10T02:57:15;13.60;99.90
4556;DHT22;2290;48.674;9.018;2023-05-10T02:59:41;13.60;99.90
4556;DHT22;2290;48.674;9.018;2023-05-10T03:02:09;13.60;99.90
4556;DHT22;2290;48.674;9.018;2023-05-10T03:04:35;13.60;99.90
4556;DHT22;2290;48.674;9.018;2023-05-10T03:07:01;13.60;99.90
4556;DHT22;2290;48.674;9.018;2023-05-10T03:09:27;13.70;99.90
4556;DHT22;2290;48.674;9.018;2023-05-10T03:12:15;13.60;99.90
4556;DHT22;2290;48.674;9.018;2023-05-10T03:14:53;13.60;99.90
4556;DHT22;2290;48.674;9.018;2023-05-10T03:17:45;13.60;99.90
4556;DHT22;2290;48.674;9.018;2023-05-10T03:20:24;13.50;99.90
4556;DHT22;2290;48.674;9.018;2023-05-10T03:22:55;13.50;99.90
4556;DHT22;2290;48.674;9.018;2023-05-10T03:25:25;13.50;99.90
4556;DHT22;2290;48.674;9.018;2023-05-10T03:27:52;13.50;99.90
4556;DHT22;2290;48.674;9.018;2023-05-10T03:30:18;13.60;99.90
4556;DHT22;2290;48.674;9.018;2023-05-10T03:32:44;13.50;99.90
4556;DHT22;2290;48.674;9.018;2023-05-10T03:35:12;13.60;99.90
4556;DHT22;2290;48.674;9.018;2023-05-10T03:37:38;13.60;99.90
4556;DHT22;2290;48.674;9.018;2023-05-10T03:40:05;13.60;99.90
4556;DHT22;2290;48.674;9.018;2023-05-10T03:42:31;13.40;99.90
4556;DHT22;2290;48.674;9.018;2023-05-10T03:44:56;13.30;99.90
4556;DHT22;2290;48.674;9.018;2023-05-10T03:47:22;13.30;99.90
4556;DHT22;2290;48.674;9.018;2023-05-10T03:49:47;13.30;99.90
4556;DHT22;2290;48.674;9.018;2023-05-10T03:52:13;13.20;99.90
4556;DHT22;2290;48.674;9.018;2023-05-10T03:54:39;13.20;99.90
4556;DHT22;2290;48.674;9.018;2023-05-10T03:57:05;13.10;99.90
4556;DHT22;2290;48.674;9.018;2023-05-10T03:59:30;13.10;99.90
4556;DHT22;2290;48.674;9.018;2023-05-10T04:01:56;13.00;99.90
4556;DHT22;2290;48.674;9.018;2023-05-10T04:04:22;13.00;99.90
4556;DHT22;2290;48.674;9.018;2023-05-10T04:06:48;13.00;99.90
4556;DHT22;2290;48.674;9.018;2023-05-10T04:09:14;12.90;99.90
4556;DHT22;2290;48.674;9.018;2023-05-10T04:11:40;13.00;99.90
4556;DHT22;2290;48.674;9.018;2023-05-10T04:14:05;12.80;99.90
4556;DHT22;2290;48.674;9.018;2023-05-10T04:16:36;12.90;99.90
4556;DHT22;2290;48.674;9.018;2023-05-10T04:19:15;12.80;99.90
4556;DHT22;2290;48.674;9.018;2023-05-10T04:21:45;12.80;99.90
4556;DHT22;2290;48.674;9.018;2023-05-10T04:24:12;12.80;99.90
4556;DHT22;2290;48.674;9.018;2023-05-10T04:26:39;12.90;99.90
4556;DHT22;2290;48.674;9.018;2023-05-10T04:29:04;12.90;99.90
4556;DHT22;2290;48.674;9.018;2023-05-10T04:31:30;12.90;99.90
4556;DHT22;2290;48.674;9.018;2023-05-10T04:33:56;13.10;99.90
4556;DHT22;2290;48.674;9.018;2023-05-10T04:36:24;13.10;99.90
4556;DHT22;2290;48.674;9.018;2023-05-10T04:38:51;13.10;99.90
4556;DHT22;2290;48.674;9.018;2023-05-10T04:41:16;13.10;99.90
4556;DHT22;2290;48.674;9.018;2023-05-10T04:43:42;13.10;99.90
4556;DHT22;2290;48.674;9.018;2023-05-10T04:46:07;13.00;99.90
4556;DHT22;2290;48.674;9.018;2023-05-10T04:48:33;13.10;99.90
4556;DHT22;2290;48.674;9.018;2023-05-10T04:50:59;13.10;99.90
4556;DHT22;2290;48.674;9.018;2023-05-10T04:53:25;13.20;99.90
4556;DHT22;2290;48.674;9.018;2023-05-10T04:55:50;13.20;99.90
4556;DHT22;2290;48.674;9.018;2023-05-10T04:58:16;13.20;99.90
4556;DHT22;2290;48.674;9.018;2023-05-10T05:00:41;13.20;99.90
4556;DHT22;2290;48.674;9.018;2023-05-10T05:03:07;13.10;99.90
4556;DHT22;2290;48.674;9.018;2023-05-10T05:05:33;13.20;99.90
4556;DHT22;2290;48.674;9.018;2023-05-10T05:07:58;13.20;99.90
4556;DHT22;2290;48.674;9.018;2023-05-10T05:10:24;13.20;99.90
4556;DHT22;2290;48.674;9.018;2023-05-10T05:12:49;13.20;99.90
4556;DHT22;2290;48.674;9.018;2023-05-10T05:15:15;13.20;99.90
4556;DHT22;2290;48.674;9.018;2023-05-10T05:17:42;13.20;99.90
4556;DHT22;2290;48.674;9.018;2023-05-10T05:20:08;13.30;99.90
4556;DHT22;2290;48.674;9.018;2023-05-10T05:22:35;13.30;99.90
4556;DHT22;2290;48.674;9.018;2023-05-10T05:25:00;13.30;99.90
4556;DHT22;2290;48.674;9.018;2023-05-10T05:27:27;13.40;99.90
4556;DHT22;2290;48.674;9.018;2023-05-10T05:29:54;13.40;99.90
4556;DHT22;2290;48.674;9.018;2023-05-10T05:32:20;13.40;99.90
4556;DHT22;2290;48.674;9.018;2023-05-10T05:34:46;13.40;99.90
4556;DHT22;2290;48.674;9.018;2023-05-10T05:37:15;13.30;99.90
4556;DHT22;2290;48.674;9.018;2023-05-10T05:39:42;13.40;99.90
4556;DHT22;2290;48.674;9.018;2023-05-10T05:42:08;13.40;99.90
4556;DHT22;2290;48.674;9.018;2023-05-10T05:44:34;13.40;99.90
4556;DHT22;2290;48.674;9.018;2023-05-10T05:47:00;13.40;99.90
4556;DHT22;2290;48.674;9.018;2023-05-10T05:49:25;13.50;99.90
4556;DHT22;2290;48.674;9.018;2023-05-10T05:51:51;13.50;99.90
4556;DHT22;2290;48.674;9.018;2023-05-10T05:54:17;13.60;99.90
4556;DHT22;2290;48.674;9.018;2023-05-10T05:56:42;13.60;99.90
4556;DHT22;2290;48.674;9.018;2023-05-10T05:59:09;13.60;99.90
4556;DHT22;2290;48.674;9.018;2023-05-10T06:01:35;13.60;99.90
4556;DHT22;2290;48.674;9.018;2023-05-10T06:04:01;13.60;99.90
4556;DHT22;2290;48.674;9.018;2023-05-10T06:06:26;13.70;99.90
4556;DHT22;2290;48.674;9.018;2023-05-10T06:08:54;13.70;99.90
4556;DHT22;2290;48.674;9.018;2023-05-10T06:11:21;13.70;99.90
4556;DHT22;2290;48.674;9.018;2023-05-10T06:13:47;13.80;99.90
4556;DHT22;2290;48.674;9.018;2023-05-10T06:16:13;13.80;99.90
4556;DHT22;2290;48.674;9.018;2023-05-10T06:18:40;13.90;99.90
4556;DHT22;2290;48.674;9.018;2023-05-10T06:21:05;13.90;99.90
4556;DHT22;2290;48.674;9.018;2023-05-10T06:23:31;13.90;99.90
4556;DHT22;2290;48.674;9.018;2023-05-10T06:25:56;13.80;99.90
4556;DHT22;2290;48.674;9.018;2023-05-10T06:28:22;13.80;99.90
4556;DHT22;2290;48.674;9.018;2023-05-10T06:30:47;13.80;99.90
4556;DHT22;2290;48.674;9.018;2023-05-10T06:33:13;14.00;99.90
4556;DHT22;2290;48.674;9.018;2023-05-10T06:35:39;14.00;99.90
4556;DHT22;2290;48.674;9.018;2023-05-10T06:38:04;13.90;99.90
4556;DHT22;2290;48.674;9.018;2023-05-10T06:40:30;13.90;99.90
4556;DHT22;2290;48.674;9.018;2023-05-10T06:42:56;13.90;99.90
4556;DHT22;2290;48.674;9.018;2023-05-10T06:45:21;13.90;99.90
4556;DHT22;2290;48.674;9.018;2023-05-10T06:47:47;13.80;99.90
4556;DHT22;2290;48.674;9.018;2023-05-10T06:50:12;13.80;99.90
4556;DHT22;2290;48.674;9.018;2023-05-10T06:52:38;13.80;99.90
4556;DHT22;2290;48.674;9.018;2023-05-10T06:55:05;13.80;99.90
4556;DHT22;2290;48.674;9.018;2023-05-10T06:57:31;13.80;99.90
4556;DHT22;2290;48.674;9.018;2023-05-10T06:59:58;13.90;99.90
4556;DHT22;2290;48.674;9.018;2023-05-10T07:02:24;13.90;99.90
4556;DHT22;2290;48.674;9.018;2023-05-10T07:04:50;13.90;99.90
4556;DHT22;2290;48.674;9.018;2023-05-10T07:07:17;14.00;99.90
4556;DHT22;2290;48.674;9.018;2023-05-10T07:09:42;14.00;99.90
4556;DHT22;2290;48.674;9.018;2023-05-10T07:12:08;14.10;99.90
4556;DHT22;2290;48.674;9.018;2023-05-10T07:14:33;14.10;99.90
4556;DHT22;2290;48.674;9.018;2023-05-10T07:16:59;14.00;99.90
4556;DHT22;2290;48.674;9.018;2023-05-10T07:19:25;14.10;99.90
4556;DHT22;2290;48.674;9.018;2023-05-10T07:21:50;14.20;99.90
4556;DHT22;2290;48.674;9.018;2023-05-10T07:24:16;14.30;99.90
4556;DHT22;2290;48.674;9.018;2023-05-10T07:26:41;14.40;99.90
4556;DHT22;2290;48.674;9.018;2023-05-10T07:29:07;14.40;99.90
4556;DHT22;2290;48.674;9.018;2023-05-10T07:31:32;14.40;99.90
4556;DHT22;2290;48.674;9.018;2023-05-10T07:33:59;14.60;99.90
4556;DHT22;2290;48.674;9.018;2023-05-10T07:36:25;14.50;99.90
4556;DHT22;2290;48.674;9.018;2023-05-10T07:38:50;14.70;99.90
4556;DHT22;2290;48.674;9.018;2023-05-10T07:41:16;14.60;99.90
4556;DHT22;2290;48.674;9.018;2023-05-10T07:43:41;14.60;99.90
4556;DHT22;2290;48.674;9.018;2023-05-10T07:46:07;14.60;99.90
4556;DHT22;2290;48.674;9.018;2023-05-10T07:48:36;14.70;99.90
4556;DHT22;2290;48.674;9.018;2023-05-10T07:51:01;14.80;99.90
4556;DHT22;2290;48.674;9.018;2023-05-10T07:53:27;14.80;99.90
4556;DHT22;2290;48.674;9.018;2023-05-10T07:55:57;14.70;99.90
4556;DHT22;2290;48.674;9.018;2023-05-10T07:58:24;14.70;99.90
4556;DHT22;2290;48.674;9.018;2023-05-10T08:00:50;14.70;99.90
4556;DHT22;2290;48.674;9.018;2023-05-10T08:03:15;14.70;99.90
4556;DHT22;2290;48.674;9.018;2023-05-10T08:05:41;14.70;99.90
4556;DHT22;2290;48.674;9.018;2023-05-10T08:08:06;14.70;99.90
4556;DHT22;2290;48.674;9.018;2023-05-10T08:10:33;14.70;99.90
4556;DHT22;2290;48.674;9.018;2023-05-10T08:12:59;14.70;99.90
4556;DHT22;2290;48.674;9.018;2023-05-10T08:15:25;14.80;99.90
4556;DHT22;2290;48.674;9.018;2023-05-10T08:17:51;14.70;99.90
4556;DHT22;2290;48.674;9.018;2023-05-10T08:20:17;14.80;99.90
4556;DHT22;2290;48.674;9.018;2023-05-10T08:22:45;14.80;99.90
4556;DHT22;2290;48.674;9.018;2023-05-10T08:25:11;15.00;99.90
4556;DHT22;2290;48.674;9.018;2023-05-10T08:27:36;14.80;99.90
4556;DHT22;2290;48.674;9.018;2023-05-10T08:30:02;14.80;99.90
4556;DHT22;2290;48.674;9.018;2023-05-10T08:32:28;14.80;99.90
4556;DHT22;2290;48.674;9.018;2023-05-10T08:34:55;14.80;99.90
4556;DHT22;2290;48.674;9.018;2023-05-10T08:37:25;14.90;99.90
4556;DHT22;2290;48.674;9.018;2023-05-10T08:39:51;15.00;99.90
4556;DHT22;2290;48.674;9.018;2023-05-10T08:42:19;15.00;99.90
4556;DHT22;2290;48.674;9.018;2023-05-10T08:44:48;15.00;99.90
4556;DHT22;2290;48.674;9.018;2023-05-10T08:47:16;15.00;99.90
4556;DHT22;2290;48.674;9.018;2023-05-10T08:49:44;14.90;99.90
4556;DHT22;2290;48.674;9.018;2023-05-10T08:52:15;14.80;99.90
4556;DHT22;2290;48.674;9.018;2023-05-10T08:54:41;14.80;99.90
4556;DHT22;2290;48.674;9.018;2023-05-10T08:57:07;14.70;99.90
4556;DHT22;2290;48.674;9.018;2023-05-10T08:59:34;14.90;99.90
4556;DHT22;2290;48.674;9.018;2023-05-10T09:02:00;15.00;99.90
4556;DHT22;2290;48.674;9.018;2023-05-10T09:04:27;15.00;99.90
4556;DHT22;2290;48.674;9.018;2023-05-10T09:06:53;14.90;99.90
4556;DHT22;2290;48.674;9.018;2023-05-10T09:09:21;14.70;99.90
4556;DHT22;2290;48.674;9.018;2023-05-10T09:11:49;14.70;99.90
4556;DHT22;2290;48.674;9.018;2023-05-10T09:14:15;14.60;99.90
4556;DHT22;2290;48.674;9.018;2023-05-10T09:16:41;14.60;99.90
4556;DHT22;2290;48.674;9.018;2023-05-10T09:19:08;14.60;99.90
4556;DHT22;2290;48.674;9.018;2023-05-10T09:21:43;14.70;99.90
4556;DHT22;2290;48.674;9.018;2023-05-10T09:24:09;14.90;99.90
4556;DHT22;2290;48.674;9.018;2023-05-10T09:26:35;15.10;99.90
4556;DHT22;2290;48.674;9.018;2023-05-10T09:29:03;15.00;99.90
4556;DHT22;2290;48.674;9.018;2023-05-10T09:31:45;15.00;99.90
4556;DHT22;2290;48.674;9.018;2023-05-10T09:34:18;15.20;99.90
4556;DHT22;2290;48.674;9.018;2023-05-10T09:36:58;15.30;99.90
4556;DHT22;2290;48.674;9.018;2023-05-10T09:39:35;15.50;99.90
4556;DHT22;2290;48.674;9.018;2023-05-10T09:42:04;15.70;99.90
4556;DHT22;2290;48.674;9.018;2023-05-10T09:44:31;15.70;99.90
4556;DHT22;2290;48.674;9.018;2023-05-10T09:46:58;15.80;99.90
4556;DHT22;2290;48.674;9.018;2023-05-10T09:49:23;15.80;99.90
4556;DHT22;2290;48.674;9.018;2023-05-10T09:52:03;15.80;99.90
4556;DHT22;2290;48.674;9.018;2023-05-10T09:54:30;15.90;99.90
4556;DHT22;2290;48.674;9.018;2023-05-10T09:56:55;15.80;99.90
4556;DHT22;2290;48.674;9.018;2023-05-10T09:59:21;15.90;99.90
4556;DHT22;2290;48.674;9.018;2023-05-10T10:01:50;15.80;99.90
4556;DHT22;2290;48.674;9.018;2023-05-10T10:04:16;15.80;99.90
4556;DHT22;2290;48.674;9.018;2023-05-10T10:06:42;16.10;99.90
4556;DHT22;2290;48.674;9.018;2023-05-10T10:09:08;16.40;99.90
4556;DHT22;2290;48.674;9.018;2023-05-10T10:11:36;16.40;99.90
4556;DHT22;2290;48.674;9.018;2023-05-10T10:14:02;16.20;99.90
4556;DHT22;2290;48.674;9.018;2023-05-10T10:16:29;16.30;99.90
4556;DHT22;2290;48.674;9.018;2023-05-10T10:18:55;16.50;99.90
4556;DHT22;2290;48.674;9.018;2023-05-10T10:21:22;16.30;99.90
4556;DHT22;2290;48.674;9.018;2023-05-10T10:23:47;16.20;99.90
4556;DHT22;2290;48.674;9.018;2023-05-10T10:26:14;16.50;99.90
4556;DHT22;2290;48.674;9.018;2023-05-10T10:31:26;16.70;99.90
4556;DHT22;2290;48.674;9.018;2023-05-10T10:34:05;16.60;99.90
4556;DHT22;2290;48.674;9.018;2023-05-10T10:36:33;16.30;99.90
4556;DHT22;2290;48.674;9.018;2023-05-10T10:39:09;16.30;99.90
4556;DHT22;2290;48.674;9.018;2023-05-10T10:41:39;16.40;99.90
4556;DHT22;2290;48.674;9.018;2023-05-10T10:47:07;15.70;99.90
4556;DHT22;2290;48.674;9.018;2023-05-10T10:49:51;14.80;99.90
4556;DHT22;2290;48.674;9.018;2023-05-10T10:52:37;14.50;99.90
4556;DHT22;2290;48.674;9.018;2023-05-10T10:55:12;14.20;99.90
4556;DHT22;2290;48.674;9.018;2023-05-10T10:57:51;14.10;99.90
4556;DHT22;2290;48.674;9.018;2023-05-10T11:00:29;13.80;99.90
4556;DHT22;2290;48.674;9.018;2023-05-10T11:03:06;13.70;99.90
4556;DHT22;2290;48.674;9.018;2023-05-10T11:05:50;13.70;99.90
4556;DHT22;2290;48.674;9.018;2023-05-10T11:08:30;13.60;99.90
4556;DHT22;2290;48.674;9.018;2023-05-10T11:11:06;13.60;99.90
4556;DHT22;2290;48.674;9.018;2023-05-10T11:16:22;14.00;99.90
4556;DHT22;2290;48.674;9.018;2023-05-10T11:21:24;13.90;99.90
4556;DHT22;2290;48.674;9.018;2023-05-10T11:23:53;14.10;99.90
4556;DHT22;2290;48.674;9.018;2023-05-10T11:26:29;14.40;99.90
4556;DHT22;2290;48.674;9.018;2023-05-10T11:28:57;14.40;99.90
4556;DHT22;2290;48.674;9.018;2023-05-10T11:31:24;14.40;99.90
4556;DHT22;2290;48.674;9.018;2023-05-10T11:33:56;14.50;99.90
4556;DHT22;2290;48.674;9.018;2023-05-10T11:36:33;14.70;99.90
4556;DHT22;2290;48.674;9.018;2023-05-10T11:38:59;14.70;99.90
4556;DHT22;2290;48.674;9.018;2023-05-10T11:41:27;14.70;99.90
4556;DHT22;2290;48.674;9.018;2023-05-10T11:43:54;14.60;99.90
4556;DHT22;2290;48.674;9.018;2023-05-10T11:46:23;14.60;99.90
4556;DHT22;2290;48.674;9.018;2023-05-10T11:48:50;14.70;99.90
4556;DHT22;2290;48.674;9.018;2023-05-10T11:51:20;14.90;99.90
4556;DHT22;2290;48.674;9.018;2023-05-10T11:53:46;15.30;99.90
4556;DHT22;2290;48.674;9.018;2023-05-10T11:56:12;15.30;99.90
4556;DHT22;2290;48.674;9.018;2023-05-10T11:58:38;15.20;99.90
4556;DHT22;2290;48.674;9.018;2023-05-10T12:01:07;15.40;99.90
4556;DHT22;2290;48.674;9.018;2023-05-10T12:03:34;15.50;99.90
4556;DHT22;2290;48.674;9.018;2023-05-10T12:06:01;15.70;99.90
4556;DHT22;2290;48.674;9.018;2023-05-10T12:08:29;15.70;99.90
4556;DHT22;2290;48.674;9.018;2023-05-10T12:11:07;15.40;99.90
4556;DHT22;2290;48.674;9.018;2023-05-10T12:13:37;15.20;99.90
4556;DHT22;2290;48.674;9.018;2023-05-10T12:16:18;15.20;99.90
4556;DHT22;2290;48.674;9.018;2023-05-10T12:18:45;15.20;99.90
4556;DHT22;2290;48.674;9.018;2023-05-10T12:21:12;15.20;99.90
4556;DHT22;2290;48.674;9.018;2023-05-10T12:23:38;15.40;99.90
4556;DHT22;2290;48.674;9.018;2023-05-10T12:26:05;15.40;99.90
4556;DHT22;2290;48.674;9.018;2023-05-10T12:28:32;15.40;99.90
4556;DHT22;2290;48.674;9.018;2023-05-10T12:30:59;15.50;99.90
4556;DHT22;2290;48.674;9.018;2023-05-10T12:33:25;15.60;99.90
4556;DHT22;2290;48.674;9.018;2023-05-10T12:35:52;15.50;99.90
4556;DHT22;2290;48.674;9.018;2023-05-10T12:40:57;15.40;99.90
4556;DHT22;2290;48.674;9.018;2023-05-10T12:43:23;15.30;99.90
4556;DHT22;2290;48.674;9.018;2023-05-10T12:45:49;15.30;99.90
4556;DHT22;2290;48.674;9.018;2023-05-10T12:48:15;15.40;99.90
4556;DHT22;2290;48.674;9.018;2023-05-10T12:50:40;15.50;99.90
4556;DHT22;2290;48.674;9.018;2023-05-10T12:53:06;15.70;99.90
4556;DHT22;2290;48.674;9.018;2023-05-10T12:55:32;15.90;99.90
4556;DHT22;2290;48.674;9.018;2023-05-10T12:57:59;16.10;99.90
4556;DHT22;2290;48.674;9.018;2023-05-10T13:00:25;16.10;99.90
4556;DHT22;2290;48.674;9.018;2023-05-10T13:02:50;16.10;99.90
4556;DHT22;2290;48.674;9.018;2023-05-10T13:05:16;16.00;99.90
4556;DHT22;2290;48.674;9.018;2023-05-10T13:07:41;16.00;99.90
4556;DHT22;2290;48.674;9.018;2023-05-10T13:10:09;16.10;99.90
4556;DHT22;2290;48.674;9.018;2023-05-10T13:12:35;16.30;99.90
4556;DHT22;2290;48.674;9.018;2023-05-10T13:15:02;16.30;99.90
4556;DHT22;2290;48.674;9.018;2023-05-10T13:17:29;16.10;99.90
4556;DHT22;2290;48.674;9.018;2023-05-10T13:19:54;16.10;99.90
4556;DHT22;2290;48.674;9.018;2023-05-10T13:22:20;16.00;99.90
4556;DHT22;2290;48.674;9.018;2023-05-10T13:24:46;15.90;99.90
4556;DHT22;2290;48.674;9.018;2023-05-10T13:27:11;15.80;99.90
4556;DHT22;2290;48.674;9.018;2023-05-10T13:29:37;15.60;99.90
4556;DHT22;2290;48.674;9.018;2023-05-10T13:32:04;15.70;99.90
4556;DHT22;2290;48.674;9.018;2023-05-10T13:34:29;15.80;99.90
4556;DHT22;2290;48.674;9.018;2023-05-10T13:36:56;15.90;99.90
4556;DHT22;2290;48.674;9.018;2023-05-10T13:39:23;16.00;99.90
4556;DHT22;2290;48.674;9.018;2023-05-10T13:41:49;16.10;99.90
4556;DHT22;2290;48.674;9.018;2023-05-10T13:44:15;16.30;99.90
4556;DHT22;2290;48.674;9.018;2023-05-10T13:46:41;16.40;99.90
4556;DHT22;2290;48.674;9.018;2023-05-10T13:49:09;16.40;99.90
4556;DHT22;2290;48.674;9.018;2023-05-10T13:51:37;16.40;99.90
4556;DHT22;2290;48.674;9.018;2023-05-10T13:54:03;16.50;99.90
4556;DHT22;2290;48.674;9.018;2023-05-10T13:56:28;16.50;99.90
4556;DHT22;2290;48.674;9.018;2023-05-10T13:58:55;16.40;99.90
4556;DHT22;2290;48.674;9.018;2023-05-10T14:01:22;16.40;99.90
4556;DHT22;2290;48.674;9.018;2023-05-10T14:03:47;16.50;99.90
4556;DHT22;2290;48.674;9.018;2023-05-10T14:06:13;16.50;99.90
4556;DHT22;2290;48.674;9.018;2023-05-10T14:08:38;16.40;99.90
4556;DHT22;2290;48.674;9.018;2023-05-10T14:11:04;16.40;99.90
4556;DHT22;2290;48.674;9.018;2023-05-10T14:13:30;16.30;99.90
4556;DHT22;2290;48.674;9.018;2023-05-10T14:15:56;16.20;99.90
4556;DHT22;2290;48.674;9.018;2023-05-10T14:18:21;16.30;99.90
4556;DHT22;2290;48.674;9.018;2023-05-10T14:20:47;16.50;99.90
4556;DHT22;2290;48.674;9.018;2023-05-10T14:23:13;16.60;99.90
4556;DHT22;2290;48.674;9.018;2023-05-10T14:25:40;16.70;99.90
4556;DHT22;2290;48.674;9.018;2023-05-10T14:28:07;16.40;99.90
4556;DHT22;2290;48.674;9.018;2023-05-10T14:30:33;16.40;99.90
4556;DHT22;2290;48.674;9.018;2023-05-10T14:33:18;16.50;99.90
4556;DHT22;2290;48.674;9.018;2023-05-10T14:35:44;16.60;99.90
4556;DHT22;2290;48.674;9.018;2023-05-10T14:38:12;16.70;99.90
4556;DHT22;2290;48.674;9.018;2023-05-10T14:40:38;16.80;99.90
4556;DHT22;2290;48.674;9.018;2023-05-10T14:43:03;16.80;99.90
4556;DHT22;2290;48.674;9.018;2023-05-10T14:45:29;16.80;99.90
4556;DHT22;2290;48.674;9.018;2023-05-10T14:47:54;16.80;99.90
4556;DHT22;2290;48.674;9.018;2023-05-10T14:50:20;16.80;99.90
4556;DHT22;2290;48.674;9.018;2023-05-10T14:52:49;16.90;99.90
4556;DHT22;2290;48.674;9.018;2023-05-10T14:55:15;17.00;99.90
4556;DHT22;2290;48.674;9.018;2023-05-10T14:57:41;17.10;99.90
4556;DHT22;2290;48.674;9.018;2023-05-10T15:00:07;17.00;99.90
4556;DHT22;2290;48.674;9.018;2023-05-10T15:02:34;16.90;99.90
4556;DHT22;2290;48.674;9.018;2023-05-10T15:05:01;16.80;99.90
4556;DHT22;2290;48.674;9.018;2023-05-10T15:07:27;16.60;99.90
4556;DHT22;2290;48.674;9.018;2023-05-10T15:09:53;16.50;99.90
4556;DHT22;2290;48.674;9.018;2023-05-10T15:12:19;16.50;99.90
4556;DHT22;2290;48.674;9.018;2023-05-10T15:14:45;16.50;99.90
4556;DHT22;2290;48.674;9.018;2023-05-10T15:17:10;16.60;99.90
4556;DHT22;2290;48.674;9.018;2023-05-10T15:19:36;16.60;99.90
4556;DHT22;2290;48.674;9.018;2023-05-10T15:22:03;16.60;99.90
4556;DHT22;2290;48.674;9.018;2023-05-10T15:24:29;16.60;99.90
4556;DHT22;2290;48.674;9.018;2023-05-10T15:26:54;16.70;99.90
4556;DHT22;2290;48.674;9.018;2023-05-10T15:29:20;16.80;99.90
4556;DHT22;2290;48.674;9.018;2023-05-10T15:31:47;16.90;99.90
4556;DHT22;2290;48.674;9.018;2023-05-10T15:34:14;16.90;99.90
4556;DHT22;2290;48.674;9.018;2023-05-10T15:36:40;17.00;99.90
4556;DHT22;2290;48.674;9.018;2023-05-10T15:39:06;17.20;99.90
4556;DHT22;2290;48.674;9.018;2023-05-10T15:41:32;17.20;99.90
4556;DHT22;2290;48.674;9.018;2023-05-10T15:43:58;17.30;99.90
4556;DHT22;2290;48.674;9.018;2023-05-10T15:46:29;17.20;99.90
4556;DHT22;2290;48.674;9.018;2023-05-10T15:48:56;16.90;99.90
4556;DHT22;2290;48.674;9.018;2023-05-10T15:51:24;16.50;99.90
4556;DHT22;2290;48.674;9.018;2023-05-10T15:53:49;16.50;99.90
4556;DHT22;2290;48.674;9.018;2023-05-10T15:56:15;16.40;99.90
4556;DHT22;2290;48.674;9.018;2023-05-10T15:58:41;16.30;99.90
4556;DHT22;2290;48.674;9.018;2023-05-10T16:01:06;16.50;99.90
4556;DHT22;2290;48.674;9.018;2023-05-10T16:03:33;16.70;99.90
4556;DHT22;2290;48.674;9.018;2023-05-10T16:05:59;16.80;99.90
4556;DHT22;2290;48.674;9.018;2023-05-10T16:08:25;16.90;99.90
4556;DHT22;2290;48.674;9.018;2023-05-10T16:10:52;16.90;99.90
4556;DHT22;2290;48.674;9.018;2023-05-10T16:13:18;16.80;99.90
4556;DHT22;2290;48.674;9.018;2023-05-10T16:15:43;16.80;99.90
4556;DHT22;2290;48.674;9.018;2023-05-10T16:18:09;16.80;99.90
4556;DHT22;2290;48.674;9.018;2023-05-10T16:20:35;16.80;99.90
4556;DHT22;2290;48.674;9.018;2023-05-10T16:23:03;16.80;99.90
4556;DHT22;2290;48.674;9.018;2023-05-10T16:25:29;16.70;99.90
4556;DHT22;2290;48.674;9.018;2023-05-10T16:27:55;16.80;99.90
4556;DHT22;2290;48.674;9.018;2023-05-10T16:30:20;16.70;99.90